createdAt,value
2018-03-06T00:00:41.343Z,110.20
2018-03-06T00:01:41.274Z,101.00
2018-03-06T00:02:41.184Z,102.30
2018-03-06T00:03:41.055Z,105.90
2018-03-06T00:04:40.981Z,108.60
2018-03-06T00:05:40.894Z,105.40
2018-03-06T00:06:40.776Z,102.40
2018-03-06T00:07:40.725Z,112.20
2018-03-06T00:08:40.568Z,99.60
2018-03-06T00:09:40.483Z,113.20
2018-03-06T00:10:40.343Z,108.80
2018-03-06T00:11:40.253Z,93.30
2018-03-06T00:12:40.153Z,101.20
2018-03-06T00:13:40.081Z,107.00
2018-03-06T00:14:39.955Z,106.10
2018-03-06T00:15:39.846Z,100.30
2018-03-06T00:16:39.757Z,100.70
2018-03-06T00:17:39.673Z,103.60
2018-03-06T00:18:39.559Z,110.80
2018-03-06T00:19:39.488Z,116.50
2018-03-06T00:20:39.352Z,103.30
2018-03-06T00:21:39.259Z,106.50
2018-03-06T00:22:39.163Z,106.80
2018-03-06T00:23:39.067Z,96.10
2018-03-06T00:24:39.022Z,98.10
2018-03-06T00:25:38.918Z,99.00
2018-03-06T00:26:38.789Z,96.90
2018-03-06T00:27:38.697Z,104.60
2018-03-06T00:28:38.600Z,106.40
2018-03-06T00:29:38.481Z,106.00
2018-03-06T00:30:38.401Z,109.50
2018-03-06T00:31:38.339Z,102.20
2018-03-06T00:32:38.204Z,97.90
2018-03-06T00:33:38.100Z,105.60
2018-03-06T00:34:37.970Z,106.50
2018-03-06T00:35:37.909Z,103.60
2018-03-06T00:36:37.791Z,94.20
2018-03-06T00:37:37.707Z,99.80
2018-03-06T00:38:37.572Z,98.10
2018-03-06T00:39:37.471Z,96.60
2018-03-06T00:40:37.368Z,100.20
2018-03-06T00:41:37.270Z,101.10
2018-03-06T00:42:37.174Z,100.70
2018-03-06T00:43:37.116Z,102.30
2018-03-06T00:44:36.979Z,103.70
2018-03-06T00:45:36.886Z,104.00
2018-03-06T00:46:36.787Z,113.40
2018-03-06T00:47:36.680Z,113.40
2018-03-06T00:48:36.579Z,106.60
2018-03-06T00:49:36.503Z,99.10
2018-03-06T00:50:36.445Z,106.80
2018-03-06T00:51:36.396Z,96.60
2018-03-06T00:52:36.196Z,98.30
2018-03-06T00:53:36.215Z,98.90
2018-03-06T00:54:36.189Z,97.50
2018-03-06T00:55:36.193Z,98.30
2018-03-06T00:56:36.122Z,103.40
2018-03-06T00:57:36.057Z,97.50
2018-03-06T00:58:36.310Z,104.80
2018-03-06T00:59:35.567Z,100.90
2018-03-06T01:00:35.403Z,106.50
2018-03-06T01:01:35.385Z,109.10
2018-03-06T01:02:35.228Z,106.70
2018-03-06T01:03:35.135Z,108.40
2018-03-06T01:04:34.985Z,115.30
2018-03-06T01:05:34.890Z,105.50
2018-03-06T01:06:34.786Z,97.60
2018-03-06T01:07:34.713Z,104.40
2018-03-06T01:08:34.587Z,106.20
2018-03-06T01:09:34.493Z,112.30
2018-03-06T01:10:34.397Z,110.20
2018-03-06T01:11:34.290Z,107.80
2018-03-06T01:12:34.195Z,110.70
2018-03-06T01:13:34.128Z,106.90
2018-03-06T01:14:33.999Z,115.20
2018-03-06T01:15:33.892Z,112.10
2018-03-06T01:16:33.836Z,110.60
2018-03-06T01:17:33.722Z,114.70
2018-03-06T01:18:33.625Z,109.10
2018-03-06T01:19:33.553Z,108.30
2018-03-06T01:20:33.431Z,105.70
2018-03-06T01:21:33.323Z,111.30
2018-03-06T01:22:33.240Z,109.90
2018-03-06T01:23:56.848Z,86.00
2018-03-06T01:24:33.035Z,93.70
2018-03-06T01:25:32.956Z,91.10
2018-03-06T01:26:32.821Z,96.90
2018-03-06T01:27:32.731Z,104.60
2018-03-06T01:28:32.626Z,100.70
2018-03-06T01:29:32.506Z,100.20
2018-03-06T01:30:32.399Z,94.70
2018-03-06T01:31:32.346Z,95.00
2018-03-06T01:32:32.201Z,106.30
2018-03-06T01:33:32.106Z,98.80
2018-03-06T01:34:32.011Z,89.10
2018-03-06T01:35:31.904Z,92.10
2018-03-06T01:36:31.813Z,98.10
2018-03-06T01:37:31.778Z,92.90
2018-03-06T01:38:31.613Z,88.60
2018-03-06T01:39:31.512Z,96.90
2018-03-06T01:40:31.404Z,93.10
2018-03-06T01:41:31.317Z,94.70
2018-03-06T01:42:31.222Z,89.70
2018-03-06T01:43:31.176Z,89.40
2018-03-06T01:44:31.029Z,92.60
2018-03-06T01:45:30.920Z,90.50
2018-03-06T01:46:30.845Z,93.60
2018-03-06T01:47:30.725Z,93.40
2018-03-06T01:48:30.650Z,94.70
2018-03-06T01:49:30.631Z,98.90
2018-03-06T01:50:30.449Z,100.20
2018-03-06T01:51:30.335Z,92.30
2018-03-06T01:52:30.260Z,99.00
2018-03-06T01:53:30.118Z,99.60
2018-03-06T01:54:30.011Z,105.90
2018-03-06T01:55:29.960Z,118.80
2018-03-06T01:56:29.819Z,111.80
2018-03-06T01:57:29.711Z,100.40
2018-03-06T01:58:29.609Z,107.70
2018-03-06T01:59:29.515Z,105.60
2018-03-06T02:00:29.414Z,101.00
2018-03-06T02:01:29.344Z,100.50
2018-03-06T02:02:29.205Z,101.80
2018-03-06T02:03:29.127Z,102.90
2018-03-06T02:04:29.029Z,102.80
2018-03-06T02:05:28.918Z,103.20
2018-03-06T02:06:28.814Z,97.90
2018-03-06T02:07:28.757Z,96.60
2018-03-06T02:08:28.625Z,95.50
2018-03-06T02:09:28.559Z,99.70
2018-03-06T02:10:28.447Z,102.40
2018-03-06T02:11:28.326Z,102.10
2018-03-06T02:12:28.255Z,102.70
2018-03-06T02:13:28.208Z,97.50
2018-03-06T02:14:28.098Z,98.40
2018-03-06T02:15:27.948Z,100.50
2018-03-06T02:16:27.854Z,101.30
2018-03-06T02:17:27.759Z,105.70
2018-03-06T02:18:27.637Z,101.20
2018-03-06T02:19:27.572Z,103.10
2018-03-06T02:20:27.466Z,95.80
2018-03-06T02:21:27.348Z,108.30
2018-03-06T02:22:27.214Z,109.40
2018-03-06T02:23:27.112Z,107.00
2018-03-06T02:24:27.030Z,105.90
2018-03-06T02:25:26.968Z,119.40
2018-03-06T02:26:26.820Z,115.00
2018-03-06T02:27:26.718Z,102.40
2018-03-06T02:28:26.624Z,114.30
2018-03-06T02:29:26.520Z,121.50
2018-03-06T02:30:26.449Z,115.00
2018-03-06T02:31:26.354Z,104.20
2018-03-06T02:32:26.223Z,111.60
2018-03-06T02:33:26.121Z,106.90
2018-03-06T02:34:26.032Z,103.10
2018-03-06T02:35:25.927Z,101.50
2018-03-06T02:36:25.856Z,97.90
2018-03-06T02:37:25.764Z,105.90
2018-03-06T02:38:25.646Z,98.60
2018-03-06T02:39:25.556Z,93.30
2018-03-06T02:40:25.464Z,94.40
2018-03-06T02:41:25.369Z,102.20
2018-03-06T02:42:25.258Z,103.20
2018-03-06T02:43:25.177Z,100.80
2018-03-06T02:44:25.071Z,99.10
2018-03-06T02:45:24.968Z,92.50
2018-03-06T02:46:24.829Z,96.30
2018-03-06T02:47:24.764Z,104.00
2018-03-06T02:48:24.644Z,98.40
2018-03-06T02:49:24.589Z,96.00
2018-03-06T02:50:24.426Z,104.80
2018-03-06T02:51:24.327Z,102.40
2018-03-06T02:52:24.222Z,106.10
2018-03-06T02:53:24.124Z,101.50
2018-03-06T02:54:24.035Z,103.90
2018-03-06T02:55:23.967Z,102.60
2018-03-06T02:56:23.848Z,100.60
2018-03-06T02:57:23.731Z,99.40
2018-03-06T02:58:23.640Z,91.20
2018-03-06T02:59:23.539Z,88.10
2018-03-06T03:00:23.440Z,94.50
2018-03-06T03:01:23.382Z,90.20
2018-03-06T03:02:23.269Z,92.40
2018-03-06T03:03:23.172Z,91.00
2018-03-06T03:04:23.043Z,94.80
2018-03-06T03:05:22.989Z,93.80
2018-03-06T03:06:22.885Z,92.10
2018-03-06T03:07:22.815Z,93.50
2018-03-06T03:08:22.656Z,95.20
2018-03-06T03:09:22.550Z,97.10
2018-03-06T03:10:22.478Z,99.80
2018-03-06T03:11:22.391Z,97.90
2018-03-06T03:12:22.285Z,102.00
2018-03-06T03:13:22.206Z,99.60
2018-03-06T03:14:22.041Z,105.70
2018-03-06T03:15:21.937Z,109.10
2018-03-06T03:16:21.833Z,112.30
2018-03-06T03:17:21.748Z,107.50
2018-03-06T03:18:21.636Z,113.50
2018-03-06T03:19:21.578Z,115.70
2018-03-06T03:20:21.431Z,114.40
2018-03-06T03:21:21.334Z,112.30
2018-03-06T03:22:21.242Z,113.00
2018-03-06T03:23:21.142Z,96.80
2018-03-06T03:24:21.042Z,102.60
2018-03-06T03:25:21.010Z,104.00
2018-03-06T03:26:20.852Z,99.20
2018-03-06T03:27:20.737Z,88.90
2018-03-06T03:28:20.652Z,95.80
2018-03-06T03:29:20.567Z,94.80
2018-03-06T03:30:20.462Z,96.80
2018-03-06T03:31:20.394Z,92.20
2018-03-06T03:32:20.266Z,101.20
2018-03-06T03:33:20.156Z,101.70
2018-03-06T03:34:20.083Z,95.00
2018-03-06T03:35:19.961Z,91.00
2018-03-06T03:36:19.847Z,91.60
2018-03-06T03:37:19.774Z,97.20
2018-03-06T03:38:19.669Z,97.90
2018-03-06T03:39:19.558Z,94.10
2018-03-06T03:40:19.484Z,95.10
2018-03-06T03:41:19.369Z,95.90
2018-03-06T03:42:19.283Z,98.90
2018-03-06T03:43:19.193Z,102.80
2018-03-06T03:44:19.043Z,102.60
2018-03-06T03:45:18.939Z,95.10
2018-03-06T03:46:18.850Z,100.20
2018-03-06T03:47:18.755Z,113.70
2018-03-06T03:48:18.641Z,102.00
2018-03-06T03:49:18.566Z,113.10
2018-03-06T03:50:18.447Z,104.60
2018-03-06T03:51:18.356Z,92.80
2018-03-06T03:52:18.279Z,94.50
2018-03-06T03:53:18.138Z,98.60
2018-03-06T03:54:18.043Z,93.30
2018-03-06T03:55:17.968Z,93.40
2018-03-06T03:56:17.845Z,94.10
2018-03-06T03:57:17.765Z,95.60
2018-03-06T03:58:17.683Z,93.30
2018-03-06T03:59:17.597Z,92.50
2018-03-06T04:00:17.481Z,93.90
2018-03-06T04:01:17.401Z,95.70
2018-03-06T04:02:17.266Z,99.10
2018-03-06T04:03:17.209Z,90.60
2018-03-06T04:04:17.136Z,91.50
2018-03-06T04:05:16.979Z,87.70
2018-03-06T04:06:16.851Z,92.50
2018-03-06T04:07:16.822Z,87.40
2018-03-06T04:08:16.676Z,92.80
2018-03-06T04:09:16.582Z,92.30
2018-03-06T04:10:16.447Z,96.20
2018-03-06T04:11:16.347Z,99.60
2018-03-06T04:12:16.258Z,93.30
2018-03-06T04:13:16.176Z,88.60
2018-03-06T04:14:16.042Z,91.40
2018-03-06T04:15:15.954Z,90.80
2018-03-06T04:16:15.867Z,98.10
2018-03-06T04:17:15.749Z,82.10
2018-03-06T04:18:15.707Z,89.30
2018-03-06T04:19:15.586Z,94.80
2018-03-06T04:20:15.449Z,96.70
2018-03-06T04:21:15.339Z,93.30
2018-03-06T04:22:15.243Z,104.60
2018-03-06T04:23:15.167Z,95.90
2018-03-06T04:24:15.058Z,96.90
2018-03-06T04:25:15.302Z,102.60
2018-03-06T04:26:14.921Z,105.70
2018-03-06T04:27:14.784Z,87.70
2018-03-06T04:28:14.718Z,88.90
2018-03-06T04:29:14.583Z,93.50
2018-03-06T04:30:14.493Z,94.40
2018-03-06T04:31:14.407Z,101.80
2018-03-06T04:32:14.258Z,93.70
2018-03-06T04:33:14.196Z,94.40
2018-03-06T04:34:14.096Z,94.50
2018-03-06T04:35:13.977Z,104.50
2018-03-06T04:36:13.883Z,97.20
2018-03-06T04:37:13.833Z,92.70
2018-03-06T04:38:13.676Z,96.00
2018-03-06T04:39:13.549Z,101.40
2018-03-06T04:40:13.463Z,98.70
2018-03-06T04:41:13.373Z,95.20
2018-03-06T04:42:13.239Z,96.40
2018-03-06T04:43:13.280Z,75.30
2018-03-06T04:44:13.093Z,79.50
2018-03-06T04:45:12.959Z,80.10
2018-03-06T04:46:12.858Z,92.60
2018-03-06T04:47:12.750Z,89.50
2018-03-06T04:48:12.666Z,82.80
2018-03-06T04:49:12.584Z,87.10
2018-03-06T04:50:12.494Z,85.10
2018-03-06T04:51:12.397Z,91.50
2018-03-06T04:52:12.282Z,84.50
2018-03-06T04:53:12.192Z,84.20
2018-03-06T04:54:12.088Z,86.30
2018-03-06T04:55:12.049Z,85.60
2018-03-06T04:56:11.863Z,86.90
2018-03-06T04:57:11.762Z,84.80
2018-03-06T04:58:11.677Z,85.80
2018-03-06T04:59:11.594Z,87.50
2018-03-06T05:00:11.488Z,94.70
2018-03-06T05:01:11.411Z,88.30
2018-03-06T05:02:11.315Z,84.30
2018-03-06T05:03:11.172Z,92.80
2018-03-06T05:04:11.054Z,92.40
2018-03-06T05:05:10.947Z,91.30
2018-03-06T05:06:10.858Z,83.10
2018-03-06T05:07:10.792Z,85.00
2018-03-06T05:08:10.649Z,89.20
2018-03-06T05:09:10.548Z,89.10
2018-03-06T05:10:10.462Z,85.40
2018-03-06T05:11:10.359Z,91.00
2018-03-06T05:12:10.263Z,95.20
2018-03-06T05:13:10.191Z,99.70
2018-03-06T05:14:10.056Z,95.00
2018-03-06T05:15:09.959Z,99.50
2018-03-06T05:16:09.866Z,90.80
2018-03-06T05:17:09.777Z,89.80
2018-03-06T05:18:09.693Z,87.10
2018-03-06T05:19:09.602Z,79.20
2018-03-06T05:20:09.453Z,81.00
2018-03-06T05:21:09.366Z,85.40
2018-03-06T05:22:09.266Z,90.90
2018-03-06T05:23:09.195Z,88.50
2018-03-06T05:24:09.108Z,93.10
2018-03-06T05:25:09.016Z,91.10
2018-03-06T05:26:08.901Z,92.90
2018-03-06T05:27:08.768Z,90.30
2018-03-06T05:28:08.657Z,91.50
2018-03-06T05:29:08.589Z,82.50
2018-03-06T05:30:08.478Z,86.80
2018-03-06T05:31:08.395Z,86.20
2018-03-06T05:32:08.258Z,88.30
2018-03-06T05:33:08.156Z,95.90
2018-03-06T05:34:08.064Z,93.90
2018-03-06T05:35:07.962Z,91.50
2018-03-06T05:36:07.851Z,98.40
2018-03-06T05:37:07.808Z,95.20
2018-03-06T05:38:07.654Z,86.80
2018-03-06T05:39:07.548Z,88.80
2018-03-06T05:40:07.447Z,91.10
2018-03-06T05:41:07.340Z,86.60
2018-03-06T05:42:07.251Z,88.50
2018-03-06T05:43:07.187Z,88.40
2018-03-06T05:44:07.044Z,85.20
2018-03-06T05:45:06.980Z,90.90
2018-03-06T05:46:06.864Z,90.40
2018-03-06T05:47:06.755Z,87.30
2018-03-06T05:48:06.686Z,93.40
2018-03-06T05:49:06.634Z,86.50
2018-03-06T05:50:06.468Z,86.00
2018-03-06T05:51:06.390Z,98.20
2018-03-06T05:52:06.256Z,90.00
2018-03-06T05:53:06.157Z,89.80
2018-03-06T05:54:06.056Z,92.00
2018-03-06T05:55:05.993Z,87.20
2018-03-06T05:56:05.854Z,97.50
2018-03-06T05:57:05.790Z,83.70
2018-03-06T05:58:05.650Z,81.90
2018-03-06T05:59:05.562Z,86.30
2018-03-06T06:00:05.443Z,89.10
2018-03-06T06:01:05.383Z,92.30
2018-03-06T06:02:05.250Z,95.20
2018-03-06T06:03:05.171Z,101.00
2018-03-06T06:04:05.059Z,93.60
2018-03-06T06:05:04.958Z,99.30
2018-03-06T06:06:04.850Z,90.00
2018-03-06T06:07:04.842Z,95.90
2018-03-06T06:08:04.672Z,99.90
2018-03-06T06:09:04.552Z,90.70
2018-03-06T06:12:54.530Z,69.90
2018-03-06T06:13:54.381Z,96.00
2018-03-06T06:14:54.304Z,93.00
2018-03-06T06:15:54.168Z,91.20
2018-03-06T06:16:54.128Z,87.80
2018-03-06T06:17:54.927Z,92.00
2018-03-06T06:18:53.914Z,91.10
2018-03-06T06:19:53.754Z,90.10
2018-03-06T06:20:53.647Z,85.70
2018-03-06T06:21:53.556Z,87.20
2018-03-06T06:22:53.441Z,85.70
2018-03-06T06:23:53.337Z,86.60
2018-03-06T06:24:53.306Z,83.20
2018-03-06T06:25:53.129Z,85.30
2018-03-06T06:26:53.028Z,85.00
2018-03-06T06:27:52.932Z,85.10
2018-03-06T06:28:52.832Z,82.10
2018-03-06T06:29:52.724Z,85.50
2018-03-06T06:30:52.709Z,83.20
2018-03-06T06:31:52.585Z,86.90
2018-03-06T06:32:52.450Z,88.80
2018-03-06T06:33:52.371Z,88.10
2018-03-06T06:34:52.258Z,88.40
2018-03-06T06:35:52.160Z,95.60
2018-03-06T06:36:52.114Z,84.50
2018-03-06T06:37:51.982Z,83.40
2018-03-06T06:38:51.851Z,84.10
2018-03-06T06:39:51.749Z,84.40
2018-03-06T06:40:51.666Z,86.40
2018-03-06T06:41:51.565Z,85.40
2018-03-06T06:42:51.485Z,79.70
2018-03-06T06:43:51.348Z,91.00
2018-03-06T06:44:51.233Z,89.30
2018-03-06T06:45:51.145Z,89.80
2018-03-06T06:46:51.086Z,91.90
2018-03-06T06:47:50.945Z,97.70
2018-03-06T06:48:50.885Z,97.80
2018-03-06T06:49:50.771Z,97.10
2018-03-06T06:50:50.652Z,90.70
2018-03-06T06:51:50.553Z,94.10
2018-03-06T06:52:50.444Z,92.20
2018-03-06T06:53:50.335Z,94.50
2018-03-06T06:54:50.306Z,95.60
2018-03-06T06:55:50.211Z,97.70
2018-03-06T06:56:50.132Z,112.40
2018-03-06T06:57:49.991Z,110.80
2018-03-06T06:58:49.874Z,111.50
2018-03-06T06:59:49.839Z,96.40
2018-03-06T07:00:49.668Z,90.70
2018-03-06T07:01:49.582Z,89.30
2018-03-06T07:02:49.496Z,67.50
2018-03-06T07:03:49.452Z,74.80
2018-03-06T07:04:49.309Z,70.20
2018-03-06T07:05:49.196Z,78.20
2018-03-06T07:06:49.071Z,89.20
2018-03-06T07:07:48.951Z,83.40
2018-03-06T07:08:48.862Z,80.60
2018-03-06T07:09:48.768Z,70.00
2018-03-06T07:10:48.668Z,84.00
2018-03-06T07:11:48.603Z,88.10
2018-03-06T07:12:48.472Z,90.40
2018-03-06T07:13:48.401Z,88.60
2018-03-06T07:14:48.265Z,79.20
2018-03-06T07:15:48.219Z,71.90
2018-03-06T07:16:48.067Z,82.10
2018-03-06T07:17:47.967Z,64.20
2018-03-06T07:18:47.862Z,83.30
2018-03-06T07:19:47.796Z,76.10
2018-03-06T07:20:47.689Z,83.50
2018-03-06T07:21:47.633Z,93.40
2018-03-06T07:22:47.574Z,92.70
2018-03-06T07:23:47.425Z,92.20
2018-03-06T07:24:47.329Z,92.90
2018-03-06T07:25:47.198Z,96.10
2018-03-06T07:26:47.144Z,92.80
2018-03-06T07:27:47.064Z,93.40
2018-03-06T07:28:47.040Z,94.10
2018-03-06T07:29:47.353Z,94.70
2018-03-06T07:30:46.774Z,95.20
2018-03-06T07:31:46.616Z,95.20
2018-03-06T07:32:46.504Z,93.60
2018-03-06T07:33:46.473Z,87.60
2018-03-06T07:34:46.420Z,92.20
2018-03-06T07:35:46.220Z,90.40
2018-03-06T07:36:46.096Z,95.70
2018-03-06T07:37:46.027Z,97.90
2018-03-06T07:38:45.922Z,100.80
2018-03-06T07:39:45.811Z,94.50
2018-03-06T07:40:45.849Z,91.70
2018-03-06T07:41:45.687Z,87.50
2018-03-06T07:42:45.524Z,85.00
2018-03-06T07:43:45.432Z,87.70
2018-03-06T07:44:45.356Z,90.40
2018-03-06T07:45:45.285Z,90.00
2018-03-06T07:46:45.175Z,80.10
2018-03-06T07:47:45.065Z,90.10
2018-03-06T07:48:44.959Z,85.40
2018-03-06T07:49:44.870Z,82.50
2018-03-06T07:50:44.777Z,82.80
2018-03-06T07:51:44.792Z,84.00
2018-03-06T07:52:44.594Z,85.90
2018-03-06T07:53:44.481Z,85.60
2018-03-06T07:54:44.368Z,83.60
2018-03-06T07:55:44.292Z,75.70
2018-03-06T07:56:44.180Z,70.30
2018-03-06T07:57:44.100Z,69.40
2018-03-06T07:58:43.975Z,69.20
2018-03-06T07:59:43.874Z,75.60
2018-03-06T08:00:43.791Z,80.30
2018-03-06T08:01:43.691Z,83.20
2018-03-06T08:02:43.599Z,89.30
2018-03-06T08:03:43.548Z,79.50
2018-03-06T08:04:43.406Z,78.80
2018-03-06T08:05:43.314Z,83.20
2018-03-06T08:06:43.207Z,76.80
2018-03-06T08:07:43.100Z,76.80
2018-03-06T08:08:43.017Z,78.40
2018-03-06T08:09:42.935Z,81.00
2018-03-06T08:10:42.826Z,69.70
2018-03-06T08:11:42.767Z,85.50
2018-03-06T08:12:42.668Z,86.90
2018-03-06T08:13:42.554Z,84.40
2018-03-06T08:14:42.495Z,83.40
2018-03-06T08:15:42.385Z,83.00
2018-03-06T08:16:42.316Z,87.40
2018-03-06T08:17:42.208Z,77.30
2018-03-06T08:18:42.081Z,70.60
2018-03-06T08:19:41.986Z,72.50
2018-03-06T08:20:41.923Z,76.30
2018-03-06T08:21:41.814Z,78.10
2018-03-06T08:22:41.699Z,73.80
2018-03-06T08:23:41.580Z,74.10
2018-03-06T08:24:41.515Z,73.80
2018-03-06T08:25:41.394Z,77.20
2018-03-06T08:26:41.374Z,76.70
2018-03-06T08:27:41.210Z,65.60
2018-03-06T08:28:41.122Z,63.60
2018-03-06T08:29:41.015Z,61.00
2018-03-06T08:30:40.939Z,66.90
2018-03-06T08:31:40.824Z,79.00
2018-03-06T08:32:40.762Z,76.50
2018-03-06T08:33:40.646Z,78.80
2018-03-06T08:34:40.537Z,76.80
2018-03-06T08:35:40.462Z,80.50
2018-03-06T08:36:40.370Z,76.60
2018-03-06T08:37:40.299Z,81.50
2018-03-06T08:38:40.192Z,82.30
2018-03-06T08:39:40.088Z,79.40
2018-03-06T08:40:40.017Z,75.00
2018-03-06T08:41:39.899Z,77.20
2018-03-06T08:42:39.793Z,81.40
2018-03-06T08:43:40.339Z,80.80
2018-03-06T08:44:39.630Z,79.10
2018-03-06T08:45:39.518Z,75.40
2018-03-06T08:46:39.417Z,79.00
2018-03-06T08:47:39.327Z,74.70
2018-03-06T08:48:39.225Z,80.20
2018-03-06T08:49:39.183Z,77.60
2018-03-06T08:50:39.046Z,73.70
2018-03-06T08:51:38.946Z,72.80
2018-03-06T08:52:38.845Z,65.50
2018-03-06T08:53:38.749Z,73.70
2018-03-06T08:54:38.660Z,71.70
2018-03-06T08:55:38.586Z,72.30
2018-03-06T08:56:38.467Z,65.30
2018-03-06T08:57:38.381Z,54.10
2018-03-06T08:58:38.272Z,56.00
2018-03-06T08:59:38.196Z,74.20
2018-03-06T09:00:38.121Z,73.30
2018-03-06T09:01:38.029Z,72.00
2018-03-06T09:02:37.929Z,68.50
2018-03-06T09:03:37.859Z,69.60
2018-03-06T09:04:37.764Z,72.60
2018-03-06T09:05:37.683Z,71.70
2018-03-06T09:06:37.647Z,59.00
2018-03-06T09:07:37.485Z,69.30
2018-03-06T09:08:37.395Z,70.40
2018-03-06T09:09:37.316Z,57.70
2018-03-06T09:10:37.217Z,52.10
2018-03-06T09:11:37.110Z,57.40
2018-03-06T09:12:37.031Z,70.60
2018-03-06T09:13:36.910Z,71.60
2018-03-06T09:14:36.802Z,65.10
2018-03-06T09:15:36.703Z,64.00
2018-03-06T09:16:36.628Z,70.80
2018-03-06T09:17:36.515Z,59.50
2018-03-06T09:18:36.498Z,64.00
2018-03-06T09:19:36.330Z,60.60
2018-03-06T09:20:36.260Z,71.00
2018-03-06T09:21:36.195Z,70.80
2018-03-06T09:22:36.051Z,55.90
2018-03-06T09:23:36.022Z,64.10
2018-03-06T09:24:35.939Z,63.90
2018-03-06T09:25:35.815Z,59.80
2018-03-06T09:26:35.711Z,61.60
2018-03-06T09:27:35.637Z,61.90
2018-03-06T09:28:35.517Z,71.00
2018-03-06T09:29:35.435Z,61.80
2018-03-06T09:30:35.359Z,65.00
2018-03-06T09:31:35.268Z,64.40
2018-03-06T09:32:35.151Z,65.10
2018-03-06T09:33:35.066Z,68.00
2018-03-06T09:34:34.960Z,68.70
2018-03-06T09:35:34.941Z,61.70
2018-03-06T09:36:34.802Z,66.60
2018-03-06T09:37:34.683Z,58.70
2018-03-06T09:38:34.606Z,62.70
2018-03-06T09:39:34.490Z,57.50
2018-03-06T09:40:34.437Z,62.50
2018-03-06T09:41:34.367Z,60.50
2018-03-06T09:42:34.201Z,59.00
2018-03-06T09:43:34.113Z,62.60
2018-03-06T09:44:34.044Z,60.10
2018-03-06T09:45:33.945Z,63.90
2018-03-06T09:46:33.855Z,62.30
2018-03-06T09:47:33.820Z,60.10
2018-03-06T09:48:33.664Z,51.80
2018-03-06T09:49:33.630Z,61.80
2018-03-06T09:50:33.489Z,64.80
2018-03-06T09:51:33.388Z,62.80
2018-03-06T09:52:33.322Z,52.90
2018-03-06T09:53:33.224Z,66.20
2018-03-06T09:54:33.148Z,51.70
2018-03-06T09:55:33.049Z,64.20
2018-03-06T09:56:32.948Z,58.60
2018-03-06T09:57:32.971Z,63.40
2018-03-06T09:58:32.816Z,64.00
2018-03-06T09:59:32.664Z,50.80
2018-03-06T10:00:32.568Z,54.70
2018-03-06T10:01:32.466Z,62.10
2018-03-06T10:02:32.376Z,65.20
2018-03-06T10:03:32.292Z,62.50
2018-03-06T10:04:32.244Z,56.30
2018-03-06T10:05:32.095Z,58.60
2018-03-06T10:06:31.997Z,60.80
2018-03-06T10:07:31.951Z,57.80
2018-03-06T10:08:31.834Z,55.00
2018-03-06T10:09:31.731Z,55.80
2018-03-06T10:10:31.731Z,59.50
2018-03-06T10:11:31.577Z,61.00
2018-03-06T10:12:31.477Z,59.10
2018-03-06T10:13:31.411Z,60.60
2018-03-06T10:14:31.313Z,62.30
2018-03-06T10:15:31.198Z,59.50
2018-03-06T10:16:31.156Z,51.10
2018-03-06T10:17:31.019Z,52.00
2018-03-06T10:18:30.939Z,64.60
2018-03-06T10:19:30.878Z,58.40
2018-03-06T10:20:30.752Z,58.00
2018-03-06T10:21:30.693Z,51.60
2018-03-06T10:22:30.580Z,56.20
2018-03-06T10:23:30.506Z,59.50
2018-03-06T10:24:30.366Z,55.60
2018-03-06T10:25:30.338Z,51.60
2018-03-06T10:26:30.223Z,63.10
2018-03-06T10:27:30.168Z,61.00
2018-03-06T10:28:30.025Z,58.60
2018-03-06T10:29:29.927Z,57.50
2018-03-06T10:30:29.855Z,57.00
2018-03-06T10:31:29.728Z,58.20
2018-03-06T10:32:29.635Z,56.00
2018-03-06T10:33:29.631Z,51.70
2018-03-06T10:34:29.469Z,61.10
2018-03-06T10:35:29.415Z,62.20
2018-03-06T10:36:29.279Z,47.70
2018-03-06T10:37:29.191Z,64.00
2018-03-06T10:38:29.102Z,47.20
2018-03-06T10:39:29.046Z,55.30
2018-03-06T10:40:28.942Z,56.30
2018-03-06T10:41:28.861Z,51.30
2018-03-06T10:42:28.733Z,56.70
2018-03-06T10:43:28.686Z,56.20
2018-03-06T10:44:28.587Z,47.80
2018-03-06T10:45:28.490Z,55.50
2018-03-06T10:46:28.410Z,54.00
2018-03-06T10:47:28.317Z,55.40
2018-03-06T10:48:28.243Z,58.10
2018-03-06T10:49:28.148Z,60.00
2018-03-06T10:50:28.183Z,58.70
2018-03-06T10:51:27.967Z,61.40
2018-03-06T10:52:27.835Z,54.90
2018-03-06T10:53:27.754Z,52.90
2018-03-06T10:54:27.648Z,56.30
2018-03-06T10:55:27.550Z,53.60
2018-03-06T10:56:27.500Z,56.60
2018-03-06T10:57:27.367Z,59.00
2018-03-06T10:58:27.302Z,47.80
2018-03-06T10:59:27.194Z,54.60
2018-03-06T11:00:27.103Z,57.40
2018-03-06T11:01:27.014Z,49.50
2018-03-06T11:02:26.960Z,57.70
2018-03-06T11:03:26.826Z,59.60
2018-03-06T11:04:26.739Z,60.10
2018-03-06T11:05:26.658Z,52.40
2018-03-06T11:06:26.598Z,62.20
2018-03-06T11:07:26.545Z,57.50
2018-03-06T11:08:26.431Z,58.40
2018-03-06T11:09:26.265Z,56.90
2018-03-06T11:10:26.236Z,58.90
2018-03-06T11:11:26.170Z,54.80
2018-03-06T11:12:25.998Z,266.10
2018-03-06T11:13:25.964Z,172.30
2018-03-06T11:14:25.944Z,75.00
2018-03-06T11:15:25.785Z,62.50
2018-03-06T11:16:25.638Z,57.80
2018-03-06T11:17:25.582Z,61.40
2018-03-06T11:18:25.518Z,63.90
2018-03-06T11:19:25.364Z,62.90
2018-03-06T11:20:25.342Z,60.80
2018-03-06T11:21:25.169Z,54.80
2018-03-06T11:22:25.083Z,61.40
2018-03-06T11:23:24.986Z,60.60
2018-03-06T11:24:24.899Z,63.50
2018-03-06T11:25:24.825Z,61.20
2018-03-06T11:26:24.763Z,58.80
2018-03-06T11:27:24.637Z,52.50
2018-03-06T11:28:24.561Z,48.00
2018-03-06T11:29:24.431Z,56.10
2018-03-06T11:30:24.386Z,46.50
2018-03-06T11:31:24.260Z,51.50
2018-03-06T11:32:24.216Z,57.10
2018-03-06T11:33:24.088Z,56.70
2018-03-06T11:34:24.034Z,67.10
2018-03-06T11:35:23.976Z,64.60
2018-03-06T11:36:23.872Z,64.60
2018-03-06T11:37:23.738Z,59.30
2018-03-06T11:38:23.742Z,56.40
2018-03-06T11:39:23.569Z,58.80
2018-03-06T11:40:23.513Z,57.10
2018-03-06T11:41:23.395Z,59.00
2018-03-06T11:42:23.275Z,54.50
2018-03-06T11:43:23.211Z,56.40
2018-03-06T11:44:23.171Z,60.10
2018-03-06T11:45:23.034Z,54.70
2018-03-06T11:46:22.937Z,56.70
2018-03-06T11:47:22.843Z,57.40
2018-03-06T11:48:22.808Z,63.30
2018-03-06T11:49:22.613Z,58.90
2018-03-06T11:50:22.619Z,53.00
2018-03-06T11:51:22.482Z,52.50
2018-03-06T11:52:22.351Z,55.30
2018-03-06T11:53:22.249Z,56.40
2018-03-06T11:54:22.176Z,59.90
2018-03-06T11:55:22.061Z,57.40
2018-03-06T11:56:22.035Z,60.60
2018-03-06T11:57:21.896Z,59.40
2018-03-06T11:58:21.810Z,62.80
2018-03-06T11:59:21.703Z,58.40
2018-03-06T12:00:21.620Z,62.30
2018-03-06T12:01:21.511Z,57.70
2018-03-06T12:02:21.461Z,56.60
2018-03-06T12:03:21.340Z,63.30
2018-03-06T12:04:21.250Z,56.20
2018-03-06T12:05:21.222Z,58.60
2018-03-06T12:06:21.113Z,58.90
2018-03-06T12:07:21.003Z,55.30
2018-03-06T12:08:20.982Z,56.90
2018-03-06T12:09:20.812Z,57.70
2018-03-06T12:10:20.711Z,58.40
2018-03-06T12:11:20.620Z,55.70
2018-03-06T12:12:20.621Z,50.00
2018-03-06T12:13:20.573Z,66.20
2018-03-06T12:14:20.565Z,68.00
2018-03-06T12:15:20.458Z,66.30
2018-03-06T12:16:20.323Z,57.50
2018-03-06T12:17:20.316Z,59.70
2018-03-06T12:18:20.270Z,60.70
2018-03-06T12:19:20.201Z,56.90
2018-03-06T12:20:20.128Z,66.20
2018-03-06T12:21:19.693Z,67.80
2018-03-06T12:22:19.620Z,58.70
2018-03-06T12:23:19.480Z,55.90
2018-03-06T12:24:19.397Z,68.40
2018-03-06T12:25:19.299Z,64.60
2018-03-06T12:26:19.264Z,65.90
2018-03-06T12:27:19.139Z,67.30
2018-03-06T12:28:19.057Z,66.30
2018-03-06T12:29:18.954Z,62.20
2018-03-06T12:30:18.856Z,64.40
2018-03-06T12:31:18.805Z,68.10
2018-03-06T12:32:18.789Z,70.50
2018-03-06T12:33:18.644Z,62.40
2018-03-06T12:34:18.525Z,65.00
2018-03-06T12:35:18.402Z,64.30
2018-03-06T12:36:18.305Z,60.40
2018-03-06T12:37:18.224Z,62.90
2018-03-06T12:38:18.171Z,66.50
2018-03-06T12:39:18.053Z,71.50
2018-03-06T12:40:17.941Z,63.00
2018-03-06T12:41:17.846Z,69.30
2018-03-06T12:42:17.750Z,64.50
2018-03-06T12:43:17.640Z,63.90
2018-03-06T12:44:17.596Z,66.80
2018-03-06T12:45:17.463Z,70.30
2018-03-06T12:46:17.364Z,62.80
2018-03-06T12:47:17.251Z,69.70
2018-03-06T12:48:17.169Z,76.30
2018-03-06T12:49:17.102Z,68.10